Time;durP1;ratioP1;P1;durP2;ratioP2;P2;SDS_P1;SDS_P2;PMS_P1;PMS_P2;Temp;Humidity;BMP_temperature;BMP_pressure;BME280_temperature;BME280_humidity;BME280_pressure;Samples;Min_cycle;Max_cycle;Signal;HPM_P1;HPM_P2
2023/01/27 00:02:04;;;;;;;17.85;6.20;;;3.50;97.90;;;;;;4936724;29;20063;-68
2023/01/27 00:04:30;;;;;;;15.23;6.00;;;3.50;98.00;;;;;;4935207;28;20511;-67
2023/01/27 00:06:56;;;;;;;15.70;6.07;;;3.50;98.10;;;;;;4928489;29;20050;-67
2023/01/27 00:09:22;;;;;;;13.88;5.25;;;3.50;98.10;;;;;;4934617;29;20039;-67
2023/01/27 00:14:31;;;;;;;21.60;6.60;;;3.50;97.90;;;;;;4933729;29;20106;-65
2023/01/27 00:16:57;;;;;;;13.10;5.45;;;3.60;97.90;;;;;;4936972;29;20046;-66
2023/01/27 00:19:23;;;;;;;15.68;5.20;;;3.50;97.70;;;;;;4932468;29;20042;-64
2023/01/27 00:24:36;;;;;;;21.77;7.07;;;3.50;97.70;;;;;;4933235;29;20054;-67
2023/01/27 00:27:07;;;;;;;14.13;5.22;;;3.60;97.90;;;;;;4934906;28;20146;-66
2023/01/27 00:29:37;;;;;;;17.50;5.75;;;3.60;97.90;;;;;;4936731;29;20043;-66
2023/01/27 00:34:48;;;;;;;14.88;5.07;;;3.60;98.00;;;;;;4930571;29;20063;-67
2023/01/27 00:37:15;;;;;;;17.67;5.22;;;3.50;97.90;;;;;;4934392;29;20106;-67
2023/01/27 00:39:41;;;;;;;17.30;4.93;;;3.50;98.00;;;;;;4933186;29;20070;-67
2023/01/27 00:42:09;;;;;;;14.40;5.53;;;3.50;98.00;;;;;;4934377;29;20031;-67
2023/01/27 00:44:35;;;;;;;18.58;6.63;;;3.50;98.10;;;;;;4938216;29;20035;-66
2023/01/27 00:47:00;;;;;;;16.67;6.05;;;3.50;98.20;;;;;;4931534;28;20031;-66
2023/01/27 00:49:26;;;;;;;17.63;5.63;;;3.50;98.20;;;;;;4930415;29;20600;-67
2023/01/27 00:51:53;;;;;;;23.23;6.93;;;3.50;98.20;;;;;;4914262;29;20043;-67
2023/01/27 00:54:19;;;;;;;19.77;6.32;;;3.60;98.20;;;;;;4930258;29;20035;-66
2023/01/27 00:56:45;;;;;;;17.95;6.40;;;3.50;98.10;;;;;;4928744;29;20042;-67
2023/01/27 00:59:11;;;;;;;19.27;5.93;;;3.60;98.00;;;;;;4916825;29;20031;-66
2023/01/27 01:01:38;;;;;;;14.70;6.10;;;3.60;97.90;;;;;;4935274;29;20786;-66
2023/01/27 01:04:04;;;;;;;13.45;5.53;;;3.60;97.90;;;;;;4933783;29;20043;-66
2023/01/27 01:06:30;;;;;;;14.57;5.13;;;3.60;98.10;;;;;;4920884;29;20046;-65
2023/01/27 01:08:56;;;;;;;15.13;6.05;;;3.60;98.10;;;;;;4914182;29;20063;-66
2023/01/27 01:11:23;;;;;;;13.45;5.60;;;3.60;98.30;;;;;;4931334;29;20039;-67
2023/01/27 01:13:49;;;;;;;14.38;6.28;;;3.60;98.30;;;;;;4933131;29;20543;-65
2023/01/27 01:16:17;;;;;;;15.25;6.05;;;3.60;98.40;;;;;;4930660;28;20066;-65
2023/01/27 01:18:43;;;;;;;14.30;5.70;;;3.60;98.30;;;;;;4918655;29;20039;-66
2023/01/27 01:21:09;;;;;;;15.07;5.60;;;3.60;98.20;;;;;;4936081;29;20032;-70
2023/01/27 01:23:43;;;;;;;17.35;6.30;;;3.60;98.20;;;;;;4941009;29;20043;-66
2023/01/27 01:26:14;;;;;;;16.70;5.68;;;3.60;98.20;;;;;;4904955;29;20384;-66
2023/01/27 01:28:40;;;;;;;18.38;5.40;;;3.70;98.30;;;;;;4937737;29;20042;-66
2023/01/27 01:31:11;;;;;;;17.58;6.60;;;3.60;98.40;;;;;;4936515;29;20035;-68
2023/01/27 01:33:38;;;;;;;15.10;6.50;;;3.60;98.40;;;;;;4933080;29;20039;-67
2023/01/27 01:36:12;;;;;;;17.20;6.50;;;3.70;98.20;;;;;;4933311;29;20046;-68
2023/01/27 01:38:38;;;;;;;17.23;6.65;;;3.70;98.10;;;;;;4916015;29;20044;-68
2023/01/27 01:41:06;;;;;;;14.38;5.28;;;3.70;98.30;;;;;;4921899;29;20031;-67
2023/01/27 01:43:31;;;;;;;16.48;5.88;;;3.70;98.20;;;;;;4940289;29;20141;-68
2023/01/27 01:45:59;;;;;;;17.65;5.72;;;3.60;98.30;;;;;;4941012;28;20560;-67
2023/01/27 01:48:45;;;;;;;19.45;6.47;;;3.60;98.40;;;;;;4938799;29;20090;-67
2023/01/27 01:51:24;;;;;;;16.85;6.40;;;3.60;98.40;;;;;;4918478;29;20490;-68
2023/01/27 01:54:00;;;;;;;21.35;6.40;;;3.60;98.50;;;;;;4933603;29;20432;-68
2023/01/27 01:56:33;;;;;;;16.05;6.20;;;3.60;98.40;;;;;;4936141;28;20119;-68
2023/01/27 01:59:04;;;;;;;18.67;6.55;;;3.60;98.40;;;;;;4917160;29;20856;-67
2023/01/27 02:01:30;;;;;;;19.58;6.90;;;3.70;98.50;;;;;;4919227;29;20744;-67
2023/01/27 02:04:01;;;;;;;15.23;6.05;;;3.70;98.40;;;;;;4918092;29;20032;-65
2023/01/27 02:06:27;;;;;;;18.15;6.55;;;3.70;98.50;;;;;;4934519;28;20035;-68
2023/01/27 02:08:56;;;;;;;17.20;6.68;;;3.70;98.40;;;;;;4939993;28;20046;-68
2023/01/27 02:11:22;;;;;;;18.38;6.82;;;3.70;98.40;;;;;;4935353;29;20039;-68
2023/01/27 02:13:48;;;;;;;18.05;6.10;;;3.70;98.30;;;;;;4919381;29;20122;-65
2023/01/27 02:16:14;;;;;;;16.77;5.78;;;3.70;98.30;;;;;;4932764;29;20120;-68
2023/01/27 02:18:41;;;;;;;20.13;7.28;;;3.70;98.30;;;;;;4931901;29;20101;-68
2023/01/27 02:21:07;;;;;;;14.93;6.13;;;3.70;98.70;;;;;;4935693;29;20031;-68
2023/01/27 02:23:58;;;;;;;18.75;6.40;;;3.70;98.40;;;;;;4931246;29;20062;-68
2023/01/27 02:26:35;;;;;;;17.65;6.78;;;3.70;98.40;;;;;;4938609;28;20102;-68
2023/01/27 02:29:07;;;;;;;18.13;6.82;;;3.70;98.40;;;;;;4932425;28;20063;-68
2023/01/27 02:31:33;;;;;;;14.90;5.90;;;3.70;98.40;;;;;;4919543;29;20059;-68
2023/01/27 02:34:07;;;;;;;16.77;6.30;;;3.70;98.40;;;;;;4934233;29;20131;-68
2023/01/27 02:36:40;;;;;;;16.75;6.30;;;3.70;98.40;;;;;;4936793;28;20035;-67
2023/01/27 02:39:08;;;;;;;12.18;6.10;;;3.70;98.40;;;;;;4917195;29;20031;-68
2023/01/27 02:41:39;;;;;;;14.60;5.60;;;3.70;98.50;;;;;;4918251;29;20034;-68
2023/01/27 02:44:06;;;;;;;15.73;6.78;;;3.70;98.60;;;;;;4925001;29;20046;-68
2023/01/27 02:46:32;;;;;;;15.27;5.85;;;3.70;98.50;;;;;;4938087;29;20095;-68
2023/01/27 02:48:59;;;;;;;17.70;6.93;;;3.70;98.50;;;;;;4933669;29;20090;-67
2023/01/27 02:51:25;;;;;;;17.50;6.10;;;3.70;98.70;;;;;;4937285;29;20392;-67
2023/01/27 02:53:51;;;;;;;19.10;6.60;;;3.70;98.40;;;;;;4932790;28;20092;-68
2023/01/27 02:56:16;;;;;;;16.70;6.72;;;3.70;98.40;;;;;;4936954;29;20082;-68
2023/01/27 02:58:43;;;;;;;14.10;5.60;;;3.70;98.60;;;;;;4923073;29;20319;-68
2023/01/27 03:01:15;;;;;;;18.92;6.82;;;3.70;98.60;;;;;;4921802;29;20032;-67
2023/01/27 03:03:46;;;;;;;16.15;6.07;;;3.70;98.60;;;;;;4930948;29;20031;-68
2023/01/27 03:06:13;;;;;;;15.65;6.78;;;3.70;98.60;;;;;;4935392;28;20031;-68
2023/01/27 03:08:40;;;;;;;16.40;6.68;;;3.70;98.60;;;;;;4920997;29;20163;-68
2023/01/27 03:11:06;;;;;;;13.80;5.88;;;3.70;98.60;;;;;;4918718;29;20066;-68
2023/01/27 03:13:35;;;;;;;16.27;5.72;;;3.70;98.40;;;;;;4908917;29;20408;-69
2023/01/27 03:18:48;;;;;;;15.43;6.07;;;3.70;98.50;;;;;;4929331;29;20836;-68
2023/01/27 03:21:16;;;;;;;17.83;6.60;;;3.70;98.50;;;;;;4917569;29;20027;-68
2023/01/27 03:23:44;;;;;;;15.68;6.35;;;3.70;98.40;;;;;;4915973;29;20043;-68
2023/01/27 03:26:11;;;;;;;17.58;6.13;;;3.70;98.30;;;;;;4919848;29;20054;-67
2023/01/27 03:28:40;;;;;;;16.67;5.28;;;3.70;98.30;;;;;;4920434;29;20542;-68
2023/01/27 03:31:19;;;;;;;16.08;6.38;;;3.70;98.50;;;;;;4921412;29;20046;-67
2023/01/27 03:33:52;;;;;;;14.68;6.03;;;3.70;98.40;;;;;;4917629;29;20586;-68
2023/01/27 03:47:30;;;;;;;13.82;5.00;;;3.70;98.40;;;;;;4930081;29;20535;-68
2023/01/27 03:49:56;;;;;;;13.48;5.05;;;3.70;98.40;;;;;;4932881;29;20031;-69
2023/01/27 03:52:22;;;;;;;14.02;5.75;;;3.70;98.40;;;;;;4936099;29;20039;-68
2023/01/27 03:54:48;;;;;;;16.33;6.47;;;3.80;98.50;;;;;;4936674;29;20039;-68
2023/01/27 03:57:14;;;;;;;15.32;5.75;;;3.70;98.40;;;;;;4927824;28;20113;-67
2023/01/27 03:59:40;;;;;;;11.90;5.32;;;3.70;98.40;;;;;;4933828;29;20106;-68
2023/01/27 04:07:36;;;;;;;14.70;5.55;;;3.80;98.50;;;;;;4928805;29;20066;-68
2023/01/27 04:10:05;;;;;;;12.77;5.30;;;3.80;98.50;;;;;;4932297;29;20062;-69
2023/01/27 04:12:32;;;;;;;15.02;6.18;;;3.80;98.40;;;;;;4934041;29;20098;-68
2023/01/27 04:14:57;;;;;;;17.35;5.97;;;3.80;98.30;;;;;;4936025;28;20071;-68
2023/01/27 04:17:23;;;;;;;15.38;5.82;;;3.80;98.30;;;;;;4934859;29;20981;-65
2023/01/27 04:19:49;;;;;;;15.90;5.18;;;3.80;98.30;;;;;;4916673;29;20036;-68
2023/01/27 04:22:15;;;;;;;15.30;5.53;;;3.80;98.20;;;;;;4931655;29;20034;-67
2023/01/27 04:24:42;;;;;;;17.65;6.70;;;3.90;98.30;;;;;;4915945;29;20070;-67
2023/01/27 04:27:12;;;;;;;16.85;5.95;;;3.80;98.30;;;;;;4932678;28;20055;-68
2023/01/27 04:29:40;;;;;;;18.85;7.25;;;3.90;98.10;;;;;;4927151;29;20040;-65
2023/01/27 04:32:08;;;;;;;13.55;5.75;;;3.90;98.20;;;;;;4934715;29;20053;-68
2023/01/27 04:34:34;;;;;;;14.25;5.32;;;3.90;98.20;;;;;;4934103;29;20129;-68
2023/01/27 04:37:02;;;;;;;15.32;6.25;;;3.80;98.30;;;;;;4931038;28;20452;-68
2023/01/27 04:39:28;;;;;;;12.45;5.10;;;3.80;98.40;;;;;;4933063;29;20036;-65
2023/01/27 04:41:55;;;;;;;14.52;5.63;;;3.80;98.40;;;;;;4936309;29;20078;-68
2023/01/27 04:44:21;;;;;;;16.10;5.93;;;3.80;98.30;;;;;;4934068;29;20043;-68
2023/01/27 04:46:47;;;;;;;16.80;5.75;;;3.80;98.40;;;;;;4931768;29;20039;-68
2023/01/27 04:49:13;;;;;;;18.73;6.20;;;3.80;98.30;;;;;;4932338;29;20047;-68
2023/01/27 04:51:39;;;;;;;12.55;5.45;;;3.80;98.40;;;;;;4941454;28;20031;-68
2023/01/27 04:54:05;;;;;;;17.10;5.65;;;3.80;98.50;;;;;;4940903;29;20903;-68
2023/01/27 04:56:37;;;;;;;15.40;5.32;;;3.80;98.50;;;;;;4940185;28;20506;-67
2023/01/27 04:59:06;;;;;;;12.68;5.03;;;3.80;98.50;;;;;;4939077;29;20042;-67
2023/01/27 05:01:32;;;;;;;15.10;5.68;;;3.90;98.50;;;;;;4939620;29;20035;-65
2023/01/27 05:03:58;;;;;;;20.52;6.90;;;3.80;98.50;;;;;;4939743;29;20035;-68
2023/01/27 05:06:25;;;;;;;15.65;5.82;;;3.80;98.60;;;;;;4936581;28;20101;-68
2023/01/27 05:08:51;;;;;;;17.55;6.55;;;3.80;98.80;;;;;;4939984;29;20077;-68
2023/01/27 05:11:18;;;;;;;16.75;6.38;;;3.80;98.80;;;;;;4933938;29;20067;-68
2023/01/27 05:13:44;;;;;;;17.70;6.25;;;3.80;98.80;;;;;;4935086;29;20086;-68
2023/01/27 05:16:15;;;;;;;14.90;5.88;;;3.80;98.70;;;;;;4936430;28;20385;-68
2023/01/27 05:18:42;;;;;;;14.15;5.82;;;3.80;98.70;;;;;;4942438;29;20042;-68
2023/01/27 05:21:12;;;;;;;16.85;6.43;;;3.90;98.70;;;;;;4938249;29;20070;-68
2023/01/27 05:23:38;;;;;;;17.42;5.93;;;3.80;98.50;;;;;;4936856;29;20118;-68
2023/01/27 05:26:07;;;;;;;21.75;6.95;;;3.90;98.60;;;;;;4935636;28;20063;-67
2023/01/27 05:28:34;;;;;;;14.40;5.35;;;3.80;98.70;;;;;;4918840;29;20152;-68
2023/01/27 05:31:10;;;;;;;13.02;5.28;;;3.80;98.60;;;;;;4937591;29;20038;-68
2023/01/27 05:33:35;;;;;;;22.38;6.22;;;3.80;98.70;;;;;;4933149;29;20428;-68
2023/01/27 05:36:04;;;;;;;15.98;6.22;;;3.80;98.90;;;;;;4937283;28;20035;-68
2023/01/27 05:38:30;;;;;;;12.07;4.30;;;3.90;98.80;;;;;;4937536;29;20042;-68
2023/01/27 05:40:59;;;;;;;15.63;5.55;;;3.90;98.70;;;;;;4935594;29;20032;-68
2023/01/27 05:43:25;;;;;;;15.15;5.25;;;3.90;98.70;;;;;;4936472;29;20031;-65
2023/01/27 05:45:51;;;;;;;10.55;4.32;;;3.90;98.80;;;;;;4932629;28;20460;-68
2023/01/27 05:48:17;;;;;;;19.00;6.55;;;3.90;98.80;;;;;;4935354;29;20107;-68
2023/01/27 05:50:42;;;;;;;14.52;4.88;;;3.90;98.90;;;;;;4935931;29;20039;-68
2023/01/27 05:53:08;;;;;;;13.05;4.75;;;3.90;98.90;;;;;;4935060;29;20044;-68
2023/01/27 05:55:34;;;;;;;12.88;5.10;;;3.90;98.90;;;;;;4932129;29;20050;-68
2023/01/27 05:58:00;;;;;;;15.55;5.50;;;3.90;99.00;;;;;;4936542;29;20039;-68
2023/01/27 06:00:25;;;;;;;14.95;5.68;;;3.90;99.00;;;;;;4940445;29;20031;-68
2023/01/27 06:02:51;;;;;;;18.25;5.85;;;3.90;99.00;;;;;;4935001;28;20695;-68
2023/01/27 06:05:17;;;;;;;17.45;5.13;;;3.90;98.90;;;;;;4936591;28;20032;-68
2023/01/27 06:07:43;;;;;;;17.08;5.75;;;3.90;98.70;;;;;;4939234;28;20770;-68
2023/01/27 06:10:09;;;;;;;17.67;6.40;;;3.90;98.70;;;;;;4939231;28;20493;-67
2023/01/27 06:12:35;;;;;;;14.48;5.63;;;3.90;98.70;;;;;;4932636;28;20890;-68
2023/01/27 06:15:02;;;;;;;15.93;5.40;;;3.90;98.70;;;;;;4937950;28;20039;-68
2023/01/27 06:17:27;;;;;;;15.13;6.00;;;3.90;98.80;;;;;;4936271;28;20047;-68
2023/01/27 06:19:53;;;;;;;16.75;5.85;;;3.90;98.90;;;;;;4934839;28;20032;-67
2023/01/27 06:22:19;;;;;;;14.63;5.45;;;3.90;98.90;;;;;;4933024;28;20031;-65
2023/01/27 06:24:45;;;;;;;18.00;6.25;;;3.90;98.70;;;;;;4933944;28;20038;-66
2023/01/27 06:27:10;;;;;;;13.95;5.47;;;3.90;98.60;;;;;;4938283;28;20045;-67
2023/01/27 06:29:36;;;;;;;15.35;5.82;;;3.90;98.80;;;;;;4933958;28;20044;-68
2023/01/27 06:32:02;;;;;;;15.65;6.65;;;3.90;99.00;;;;;;4935488;28;20086;-67
2023/01/27 06:34:28;;;;;;;17.17;7.05;;;3.90;99.00;;;;;;4935276;28;20122;-68
2023/01/27 06:36:54;;;;;;;12.63;6.05;;;3.90;98.80;;;;;;4934525;28;20043;-68
2023/01/27 06:39:20;;;;;;;16.48;6.07;;;4.00;98.70;;;;;;4933800;28;20049;-69
2023/01/27 06:41:45;;;;;;;12.55;5.43;;;4.00;98.60;;;;;;4938966;28;20035;-69
2023/01/27 06:44:11;;;;;;;16.88;6.65;;;3.90;98.80;;;;;;4935175;28;20403;-65
2023/01/27 06:46:37;;;;;;;14.52;6.32;;;4.00;98.80;;;;;;4940517;28;20062;-67
2023/01/27 06:49:03;;;;;;;11.30;4.95;;;4.00;98.80;;;;;;4935154;29;20519;-68
2023/01/27 06:51:28;;;;;;;11.13;4.93;;;4.00;98.90;;;;;;4940571;28;20035;-68
2023/01/27 06:53:54;;;;;;;13.30;5.72;;;4.00;99.00;;;;;;4936568;28;20043;-67
2023/01/27 06:56:20;;;;;;;12.38;5.20;;;4.00;98.90;;;;;;4933132;28;20062;-68
2023/01/27 06:58:46;;;;;;;13.07;5.60;;;4.00;99.00;;;;;;4938212;28;20122;-67
2023/01/27 07:01:11;;;;;;;12.20;5.03;;;4.00;99.00;;;;;;4941145;28;20512;-66
2023/01/27 07:03:37;;;;;;;9.35;4.45;;;4.00;99.10;;;;;;4928715;29;20099;-68
2023/01/27 07:06:03;;;;;;;9.93;4.30;;;4.00;99.10;;;;;;4939806;28;20038;-68
2023/01/27 07:08:29;;;;;;;11.18;5.03;;;4.00;99.10;;;;;;4940509;28;20062;-67
2023/01/27 07:10:55;;;;;;;11.93;4.65;;;4.00;99.00;;;;;;4937963;28;20158;-67
2023/01/27 07:13:20;;;;;;;11.68;5.28;;;4.00;99.00;;;;;;4933886;28;20043;-67
2023/01/27 07:15:47;;;;;;;10.60;4.97;;;4.00;99.00;;;;;;4932126;28;20031;-66
2023/01/27 07:18:13;;;;;;;10.70;4.78;;;4.10;99.00;;;;;;4936153;28;20042;-68
2023/01/27 07:20:40;;;;;;;13.65;4.63;;;4.10;98.90;;;;;;4936574;28;20031;-67
2023/01/27 07:23:06;;;;;;;12.27;5.20;;;4.10;98.90;;;;;;4939515;28;20031;-68
2023/01/27 07:25:33;;;;;;;11.07;5.07;;;4.10;98.80;;;;;;4934084;28;20046;-68
2023/01/27 07:28:00;;;;;;;12.93;5.70;;;4.10;98.80;;;;;;4935227;28;20097;-68
2023/01/27 07:30:27;;;;;;;8.07;4.40;;;4.10;98.70;;;;;;4939056;28;20118;-68
2023/01/27 07:32:54;;;;;;;10.02;4.57;;;4.10;98.80;;;;;;4933746;28;20031;-67
2023/01/27 07:35:21;;;;;;;11.10;4.78;;;4.10;99.00;;;;;;4937344;28;20126;-67
2023/01/27 07:37:46;;;;;;;9.70;4.35;;;4.10;99.10;;;;;;4935051;28;20031;-66
2023/01/27 07:40:12;;;;;;;8.15;4.22;;;4.10;99.10;;;;;;4934540;28;20094;-67
2023/01/27 07:42:39;;;;;;;8.10;3.83;;;4.10;99.20;;;;;;4937177;28;20102;-67
2023/01/27 07:45:05;;;;;;;8.57;4.57;;;4.10;99.30;;;;;;4939312;28;20046;-67
2023/01/27 07:47:31;;;;;;;17.13;7.57;;;4.10;99.30;;;;;;4938849;28;20043;-67
2023/01/27 07:49:57;;;;;;;13.55;5.97;;;4.10;99.40;;;;;;4937118;28;20050;-67
2023/01/27 07:52:22;;;;;;;9.43;4.60;;;4.20;99.30;;;;;;4931810;28;20043;-68
2023/01/27 07:54:48;;;;;;;8.10;4.20;;;4.20;99.30;;;;;;4930747;28;20042;-69
2023/01/27 07:57:14;;;;;;;10.55;4.57;;;4.30;99.20;;;;;;4933630;28;20089;-68
2023/01/27 07:59:40;;;;;;;14.25;5.53;;;4.30;99.10;;;;;;4934764;28;20035;-68
2023/01/27 08:02:07;;;;;;;9.20;4.63;;;4.30;99.10;;;;;;4933160;28;20043;-68
2023/01/27 08:04:36;;;;;;;6.93;3.88;;;4.40;99.00;;;;;;4932806;28;20043;-67
2023/01/27 08:07:01;;;;;;;6.75;4.20;;;4.40;99.00;;;;;;4931309;28;20066;-68
2023/01/27 08:09:27;;;;;;;9.10;4.50;;;4.40;99.00;;;;;;4938206;28;20142;-67
2023/01/27 08:11:53;;;;;;;10.88;5.10;;;4.40;99.00;;;;;;4932879;28;20098;-66
2023/01/27 08:14:19;;;;;;;9.40;4.78;;;4.40;99.00;;;;;;4937306;29;20098;-66
2023/01/27 08:16:44;;;;;;;9.02;4.50;;;4.40;99.00;;;;;;4939934;28;20036;-70
2023/01/27 08:19:10;;;;;;;10.00;4.57;;;4.40;99.10;;;;;;4931399;28;20044;-69
2023/01/27 08:21:36;;;;;;;9.20;4.60;;;4.50;99.10;;;;;;4932023;28;20024;-67
2023/01/27 08:24:02;;;;;;;9.65;4.07;;;4.50;99.00;;;;;;4934012;28;20039;-65
2023/01/27 08:26:28;;;;;;;9.00;4.40;;;4.50;99.10;;;;;;4940547;28;20047;-68
2023/01/27 08:28:53;;;;;;;11.60;4.65;;;4.60;99.10;;;;;;4939505;28;20059;-67
2023/01/27 08:31:19;;;;;;;9.48;4.65;;;4.60;99.10;;;;;;4939175;28;20748;-67
2023/01/27 08:33:50;;;;;;;8.68;4.40;;;4.60;99.20;;;;;;4933161;28;20349;-68
2023/01/27 08:36:17;;;;;;;10.50;4.47;;;4.60;99.30;;;;;;4939568;28;20779;-67
2023/01/27 08:38:44;;;;;;;5.28;2.95;;;4.70;99.30;;;;;;4940051;28;20499;-64
2023/01/27 08:41:12;;;;;;;8.40;3.97;;;4.70;99.20;;;;;;4940401;28;20071;-66
2023/01/27 08:43:39;;;;;;;9.63;4.80;;;4.70;99.20;;;;;;4938696;28;20043;-66
2023/01/27 08:46:05;;;;;;;10.15;4.63;;;4.80;99.30;;;;;;4938927;28;20035;-66
2023/01/27 08:48:32;;;;;;;11.07;3.83;;;4.80;99.40;;;;;;4940411;28;20035;-66
2023/01/27 08:51:00;;;;;;;7.15;3.65;;;4.80;99.40;;;;;;4939706;28;20039;-67
2023/01/27 08:53:26;;;;;;;6.93;3.70;;;4.90;99.70;;;;;;4935991;28;20035;-65
2023/01/27 08:55:55;;;;;;;8.52;3.97;;;4.90;99.50;;;;;;4935281;28;20067;-67
2023/01/27 08:58:21;;;;;;;8.18;3.92;;;5.00;99.40;;;;;;4939374;28;20035;-67
2023/01/27 09:00:47;;;;;;;10.18;4.45;;;5.00;99.30;;;;;;4940327;29;20890;-66
2023/01/27 09:03:13;;;;;;;8.32;3.80;;;5.10;99.40;;;;;;4940550;29;20090;-63
2023/01/27 09:05:40;;;;;;;7.68;3.65;;;5.10;99.40;;;;;;4939577;28;20036;-63
2023/01/27 09:08:07;;;;;;;9.55;4.15;;;5.20;99.40;;;;;;4937053;29;20053;-66
2023/01/27 09:10:39;;;;;;;6.75;3.97;;;5.20;99.40;;;;;;4937048;28;20486;-66
2023/01/27 09:13:07;;;;;;;7.18;3.67;;;5.20;99.50;;;;;;4938670;28;20050;-67
2023/01/27 09:15:35;;;;;;;7.38;4.05;;;5.30;99.60;;;;;;4935856;28;20082;-68
2023/01/27 09:18:01;;;;;;;6.07;3.55;;;5.30;99.60;;;;;;4943173;29;20399;-67
2023/01/27 09:20:26;;;;;;;8.93;3.67;;;5.30;99.70;;;;;;4936394;28;20044;-64
2023/01/27 09:22:54;;;;;;;9.68;3.58;;;5.40;99.70;;;;;;4938802;28;20039;-64
2023/01/27 09:25:20;;;;;;;8.00;3.78;;;5.40;99.70;;;;;;4940526;28;20158;-67
2023/01/27 09:27:45;;;;;;;6.97;3.78;;;5.40;99.60;;;;;;4938889;28;20035;-67
2023/01/27 09:30:13;;;;;;;8.68;4.57;;;5.50;99.60;;;;;;4936166;29;20050;-67
2023/01/27 09:32:39;;;;;;;7.57;3.90;;;5.50;99.60;;;;;;4938194;29;20804;-67
2023/01/27 09:35:05;;;;;;;7.30;3.60;;;5.60;99.70;;;;;;4940465;28;20038;-67
2023/01/27 09:37:58;;;;;;;7.88;3.75;;;5.60;99.60;;;;;;4940314;28;20032;-63
2023/01/27 09:40:29;;;;;;;6.57;3.53;;;5.60;99.60;;;;;;4934748;28;20039;-67
2023/01/27 09:43:04;;;;;;;5.35;3.25;;;5.70;99.50;;;;;;4935796;29;20032;-65
2023/01/27 09:45:42;;;;;;;7.38;3.45;;;5.70;99.60;;;;;;4937697;28;20153;-64
2023/01/27 09:48:27;;;;;;;9.88;3.70;;;5.70;99.50;;;;;;4935680;28;20090;-65
2023/01/27 09:51:17;;;;;;;6.38;3.63;;;5.80;99.70;;;;;;4934128;28;20043;-65
2023/01/27 09:54:03;;;;;;;8.75;3.35;;;5.80;99.70;;;;;;4934532;29;20475;-64
2023/01/27 09:56:44;;;;;;;9.05;3.88;;;5.80;99.90;;;;;;4937565;28;20042;-66
2023/01/27 09:59:26;;;;;;;6.75;3.90;;;5.80;99.80;;;;;;4938459;28;20114;-64
2023/01/27 10:02:19;;;;;;;6.75;3.80;;;5.90;99.70;;;;;;4934298;28;20479;-67
2023/01/27 10:05:30;;;;;;;6.60;3.30;;;5.90;99.60;;;;;;4937064;29;20824;-66
2023/01/27 10:08:36;;;;;;;7.78;3.80;;;5.90;99.60;;;;;;4929226;28;20075;-66
2023/01/27 10:11:31;;;;;;;4.88;3.28;;;5.90;99.70;;;;;;4940602;28;20105;-66
2023/01/27 10:14:05;;;;;;;6.85;3.60;;;6.00;99.70;;;;;;4934220;29;20035;-66
2023/01/27 10:16:51;;;;;;;7.35;3.22;;;6.00;99.60;;;;;;4941647;29;20137;-66
2023/01/27 10:19:50;;;;;;;4.90;3.22;;;6.00;99.60;;;;;;4934970;28;20719;-67
2023/01/27 10:22:50;;;;;;;9.27;3.88;;;6.00;99.70;;;;;;4899781;28;20075;-66
2023/01/27 10:25:32;;;;;;;9.35;3.35;;;6.00;99.70;;;;;;4902226;28;20055;-66
2023/01/27 10:28:04;;;;;;;6.32;3.20;;;6.00;99.70;;;;;;4939284;28;20054;-66
2023/01/27 10:30:35;;;;;;;7.28;3.78;;;6.00;99.80;;;;;;4937503;28;20046;-66
2023/01/27 10:33:19;;;;;;;6.50;3.25;;;6.00;99.80;;;;;;4938307;28;20035;-68
2023/01/27 10:35:45;;;;;;;6.35;3.50;;;6.00;99.60;;;;;;4938767;28;20500;-67
2023/01/27 10:38:38;;;;;;;8.75;3.42;;;6.10;99.60;;;;;;4937477;28;20066;-67
2023/01/27 10:41:08;;;;;;;6.80;2.65;;;6.10;99.70;;;;;;4932698;28;20040;-66
2023/01/27 10:43:34;;;;;;;5.18;3.03;;;6.10;99.90;;;;;;4936429;28;20493;-66
2023/01/27 10:46:19;;;;;;;7.72;2.85;;;6.10;99.80;;;;;;4935813;28;20119;-67
2023/01/27 10:48:48;;;;;;;5.95;2.55;;;6.10;99.10;;;;;;4937604;28;20066;-66
2023/01/27 10:51:29;;;;;;;2.92;2.20;;;6.20;99.50;;;;;;4919850;29;20031;-67
2023/01/27 10:54:01;;;;;;;4.53;2.40;;;6.20;99.60;;;;;;4939448;28;20046;-66
2023/01/27 10:56:52;;;;;;;4.78;2.78;;;6.20;99.20;;;;;;4939076;28;20035;-68
2023/01/27 10:59:50;;;;;;;5.53;2.38;;;6.20;99.10;;;;;;4938894;28;20040;-68
2023/01/27 11:02:46;;;;;;;5.20;1.95;;;6.10;99.20;;;;;;4939098;29;20621;-66
2023/01/27 11:05:19;;;;;;;6.32;2.45;;;6.10;99.70;;;;;;4935081;28;20067;-68
2023/01/27 11:07:58;;;;;;;5.78;2.63;;;6.20;99.90;;;;;;4939759;28;20039;-66
2023/01/27 11:11:42;;;;;;;4.22;2.33;;;6.10;99.60;;;;;;4942262;28;20483;-66
2023/01/27 11:13:26;;;;;;;2.88;1.90;;;6.10;99.50;;;;;;4939763;29;20046;-66
2023/01/27 11:15:53;;;;;;;2.85;2.20;;;6.20;99.10;;;;;;4935503;28;20058;-65
2023/01/27 11:18:25;;;;;;;2.92;1.80;;;6.20;99.50;;;;;;4935177;28;20110;-65
2023/01/27 11:20:59;;;;;;;5.00;2.08;;;6.20;99.30;;;;;;4937147;28;20027;-66
2023/01/27 11:23:35;;;;;;;4.03;1.90;;;6.20;99.50;;;;;;4934056;28;20047;-66
2023/01/27 11:26:23;;;;;;;4.00;2.08;;;6.20;99.40;;;;;;4935858;29;20137;-67
2023/01/27 11:29:22;;;;;;;3.33;1.83;;;6.30;99.40;;;;;;4933676;28;20023;-65
2023/01/27 11:31:55;;;;;;;3.45;2.35;;;6.30;99.10;;;;;;4933089;28;20046;-66
2023/01/27 11:34:36;;;;;;;2.38;1.85;;;6.20;99.30;;;;;;4937643;28;20040;-65
2023/01/27 11:37:23;;;;;;;3.03;1.98;;;6.30;99.50;;;;;;4930733;28;20035;-66
2023/01/27 11:39:48;;;;;;;3.55;1.77;;;6.30;99.60;;;;;;4933969;28;20071;-65
2023/01/27 11:42:15;;;;;;;3.50;1.85;;;6.30;99.60;;;;;;4939642;28;20202;-65
2023/01/27 11:44:43;;;;;;;5.85;2.22;;;6.40;99.50;;;;;;4940883;28;20043;-65
2023/01/27 11:47:22;;;;;;;6.35;2.47;;;6.40;99.40;;;;;;4934017;28;20039;-65
2023/01/27 11:49:49;;;;;;;3.40;1.85;;;6.50;99.20;;;;;;4934316;28;20066;-65
2023/01/27 11:52:18;;;;;;;3.72;2.08;;;6.50;99.30;;;;;;4935584;29;20407;-66
2023/01/27 11:55:10;;;;;;;5.85;2.42;;;6.50;98.90;;;;;;4935944;28;20040;-66
2023/01/27 11:57:42;;;;;;;4.93;2.25;;;6.60;98.60;;;;;;4935962;28;20416;-65
2023/01/27 12:00:32;;;;;;;5.78;2.30;;;6.50;98.30;;;;;;4936911;28;20039;-66
2023/01/27 12:03:29;;;;;;;3.35;2.33;;;6.70;98.70;;;;;;4934873;28;20049;-66
2023/01/27 12:05:59;;;;;;;9.07;2.70;;;6.60;98.20;;;;;;4939085;28;20035;-65
2023/01/27 12:08:43;;;;;;;2.63;2.17;;;6.70;98.50;;;;;;4936179;28;20062;-64
2023/01/27 12:11:18;;;;;;;6.10;2.70;;;6.70;98.40;;;;;;4934646;28;20067;-65
2023/01/27 12:14:02;;;;;;;4.75;2.33;;;6.80;98.20;;;;;;4939623;28;20755;-66
2023/01/27 12:16:44;;;;;;;3.40;2.20;;;6.80;98.00;;;;;;4934568;28;20046;-66
2023/01/27 12:19:27;;;;;;;5.25;2.17;;;6.80;98.00;;;;;;4920485;29;20142;-66
2023/01/27 12:21:57;;;;;;;6.22;2.33;;;6.70;97.80;;;;;;4938296;28;20040;-66
2023/01/27 12:24:33;;;;;;;4.97;2.13;;;6.70;98.10;;;;;;4933509;28;20343;-66
2023/01/27 12:27:00;;;;;;;7.45;2.83;;;6.70;98.20;;;;;;4935483;28;20151;-66
2023/01/27 12:29:53;;;;;;;5.38;2.35;;;6.60;98.00;;;;;;4929951;28;20106;-64
2023/01/27 12:32:33;;;;;;;5.10;3.22;;;6.50;98.10;;;;;;4934147;28;20039;-67
2023/01/27 12:35:01;;;;;;;4.15;3.10;;;6.40;98.10;;;;;;4933111;29;20106;-66
2023/01/27 12:37:36;;;;;;;7.28;3.47;;;6.40;98.40;;;;;;4933768;28;20043;-66
2023/01/27 12:40:05;;;;;;;6.10;3.85;;;6.40;98.30;;;;;;4935285;28;20039;-67
2023/01/27 12:43:00;;;;;;;7.85;3.55;;;6.40;98.30;;;;;;4936225;28;20046;-70
2023/01/27 12:45:28;;;;;;;7.97;3.75;;;6.40;98.30;;;;;;4926235;28;20044;-67
2023/01/27 12:47:57;;;;;;;7.35;3.95;;;6.40;98.30;;;;;;4939858;28;20447;-67
2023/01/27 12:50:25;;;;;;;8.70;4.07;;;6.40;98.30;;;;;;4933426;28;20121;-67
2023/01/27 12:53:21;;;;;;;10.70;4.60;;;6.40;98.40;;;;;;4935308;28;20861;-67
2023/01/27 12:55:58;;;;;;;9.85;4.13;;;6.40;98.20;;;;;;4929146;28;20094;-67
2023/01/27 12:58:32;;;;;;;10.90;4.78;;;6.40;98.10;;;;;;4935669;28;20456;-67
2023/01/27 13:01:02;;;;;;;13.68;4.57;;;6.40;98.10;;;;;;4932429;28;20063;-67
2023/01/27 13:03:28;;;;;;;9.30;4.00;;;6.40;98.20;;;;;;4931349;28;20428;-67
2023/01/27 13:05:57;;;;;;;6.35;3.35;;;6.40;98.10;;;;;;4932653;28;20040;-67
2023/01/27 13:08:26;;;;;;;9.52;3.90;;;6.40;98.00;;;;;;4929745;28;20040;-67
2023/01/27 13:10:58;;;;;;;9.00;4.30;;;6.40;97.80;;;;;;4933643;28;20081;-68
2023/01/27 13:13:29;;;;;;;13.63;4.40;;;6.30;97.90;;;;;;4936168;28;20039;-66
2023/01/27 13:16:03;;;;;;;6.63;4.07;;;6.30;97.70;;;;;;4938949;28;20806;-66
2023/01/27 13:18:33;;;;;;;7.22;3.90;;;6.30;97.80;;;;;;4925126;29;20089;-67
2023/01/27 13:21:17;;;;;;;7.68;3.88;;;6.30;97.60;;;;;;4940586;28;20035;-66
2023/01/27 13:23:46;;;;;;;8.75;3.63;;;6.20;97.90;;;;;;4939848;28;20034;-66
2023/01/27 13:26:18;;;;;;;9.55;4.57;;;6.20;98.00;;;;;;4935764;28;20031;-67
2023/01/27 13:28:47;;;;;;;7.95;4.00;;;6.10;98.40;;;;;;4939625;28;20035;-67
2023/01/27 13:31:23;;;;;;;8.32;3.67;;;6.10;98.60;;;;;;4937392;28;20023;-66
2023/01/27 13:33:59;;;;;;;;;;;6.00;98.50;;;;;;4938251;28;20039;-68
2023/01/27 13:36:42;;;;;;;8.00;3.58;;;6.00;98.30;;;;;;4938900;28;20012;-68